sensor_id;sensor_type;location;lat;lon;timestamp;P1;durP1;ratioP1;P2;durP2;ratioP2
42832;SDS011;64089;51.478;5.692;2024-01-15T00:00:37;37.55;;;13.00;;
42832;SDS011;64089;51.478;5.692;2024-01-15T00:03:04;39.50;;;13.55;;
42832;SDS011;64089;51.478;5.692;2024-01-15T00:05:29;33.60;;;13.98;;
42832;SDS011;64089;51.478;5.692;2024-01-15T00:07:55;44.95;;;14.10;;
42832;SDS011;64089;51.478;5.692;2024-01-15T00:10:20;42.97;;;14.60;;
42832;SDS011;64089;51.478;5.692;2024-01-15T00:12:46;44.83;;;15.82;;
42832;SDS011;64089;51.478;5.692;2024-01-15T00:15:12;41.20;;;14.23;;
42832;SDS011;64089;51.478;5.692;2024-01-15T00:17:37;40.28;;;16.83;;
42832;SDS011;64089;51.478;5.692;2024-01-15T00:20:03;39.60;;;15.00;;
42832;SDS011;64089;51.478;5.692;2024-01-15T00:22:29;38.17;;;13.35;;
42832;SDS011;64089;51.478;5.692;2024-01-15T00:24:55;41.42;;;15.02;;
42832;SDS011;64089;51.478;5.692;2024-01-15T00:27:21;47.42;;;14.75;;
42832;SDS011;64089;51.478;5.692;2024-01-15T00:29:47;43.95;;;14.45;;
42832;SDS011;64089;51.478;5.692;2024-01-15T00:32:13;39.25;;;13.68;;
42832;SDS011;64089;51.478;5.692;2024-01-15T00:34:38;31.73;;;12.30;;
42832;SDS011;64089;51.478;5.692;2024-01-15T00:37:04;39.00;;;12.38;;
42832;SDS011;64089;51.478;5.692;2024-01-15T00:39:31;37.92;;;12.75;;
42832;SDS011;64089;51.478;5.692;2024-01-15T00:41:57;45.42;;;14.35;;
42832;SDS011;64089;51.478;5.692;2024-01-15T00:44:23;33.25;;;11.05;;
42832;SDS011;64089;51.478;5.692;2024-01-15T00:46:48;31.55;;;12.57;;
42832;SDS011;64089;51.478;5.692;2024-01-15T00:49:14;37.08;;;12.63;;
42832;SDS011;64089;51.478;5.692;2024-01-15T00:51:40;26.05;;;12.02;;
42832;SDS011;64089;51.478;5.692;2024-01-15T00:54:06;38.88;;;13.13;;
42832;SDS011;64089;51.478;5.692;2024-01-15T00:56:32;29.80;;;12.60;;
42832;SDS011;64089;51.478;5.692;2024-01-15T00:58:58;26.20;;;11.10;;
42832;SDS011;64089;51.478;5.692;2024-01-15T01:01:23;25.60;;;9.68;;
42832;SDS011;64089;51.478;5.692;2024-01-15T01:03:49;31.92;;;11.60;;
42832;SDS011;64089;51.478;5.692;2024-01-15T01:06:14;32.95;;;10.55;;
42832;SDS011;64089;51.478;5.692;2024-01-15T01:08:40;24.20;;;9.68;;
42832;SDS011;64089;51.478;5.692;2024-01-15T01:11:05;31.67;;;10.45;;
42832;SDS011;64089;51.478;5.692;2024-01-15T01:13:32;27.50;;;8.57;;
42832;SDS011;64089;51.478;5.692;2024-01-15T01:15:58;22.00;;;8.02;;
42832;SDS011;64089;51.478;5.692;2024-01-15T01:18:23;20.42;;;7.70;;
42832;SDS011;64089;51.478;5.692;2024-01-15T01:20:49;20.02;;;6.97;;
42832;SDS011;64089;51.478;5.692;2024-01-15T01:23:14;24.08;;;6.95;;
42832;SDS011;64089;51.478;5.692;2024-01-15T01:25:40;12.10;;;5.32;;
42832;SDS011;64089;51.478;5.692;2024-01-15T01:28:06;16.38;;;5.97;;
42832;SDS011;64089;51.478;5.692;2024-01-15T01:30:31;16.52;;;5.38;;
42832;SDS011;64089;51.478;5.692;2024-01-15T01:32:57;7.35;;;4.28;;
42832;SDS011;64089;51.478;5.692;2024-01-15T01:35:22;12.63;;;4.32;;
42832;SDS011;64089;51.478;5.692;2024-01-15T01:37:48;12.35;;;3.50;;
42832;SDS011;64089;51.478;5.692;2024-01-15T01:40:14;10.90;;;3.30;;
42832;SDS011;64089;51.478;5.692;2024-01-15T01:42:39;8.38;;;2.78;;
42832;SDS011;64089;51.478;5.692;2024-01-15T01:45:05;8.95;;;3.45;;
42832;SDS011;64089;51.478;5.692;2024-01-15T01:47:31;7.00;;;2.50;;
42832;SDS011;64089;51.478;5.692;2024-01-15T01:49:57;4.57;;;1.90;;
42832;SDS011;64089;51.478;5.692;2024-01-15T01:52:23;4.88;;;2.17;;
42832;SDS011;64089;51.478;5.692;2024-01-15T01:54:49;5.57;;;2.20;;
42832;SDS011;64089;51.478;5.692;2024-01-15T01:57:15;3.90;;;2.03;;
42832;SDS011;64089;51.478;5.692;2024-01-15T01:59:42;3.80;;;2.08;;
42832;SDS011;64089;51.478;5.692;2024-01-15T02:02:09;3.22;;;2.17;;
42832;SDS011;64089;51.478;5.692;2024-01-15T02:04:35;8.40;;;2.28;;
42832;SDS011;64089;51.478;5.692;2024-01-15T02:07:01;4.55;;;1.88;;
42832;SDS011;64089;51.478;5.692;2024-01-15T02:09:27;4.43;;;1.85;;
42832;SDS011;64089;51.478;5.692;2024-01-15T02:11:53;4.53;;;2.58;;
42832;SDS011;64089;51.478;5.692;2024-01-15T02:14:19;6.57;;;2.67;;
42832;SDS011;64089;51.478;5.692;2024-01-15T02:16:44;9.60;;;3.00;;
42832;SDS011;64089;51.478;5.692;2024-01-15T02:19:17;6.78;;;2.47;;
42832;SDS011;64089;51.478;5.692;2024-01-15T02:21:43;7.43;;;2.15;;
42832;SDS011;64089;51.478;5.692;2024-01-15T02:24:09;8.45;;;3.00;;
42832;SDS011;64089;51.478;5.692;2024-01-15T02:26:34;9.65;;;2.80;;
42832;SDS011;64089;51.478;5.692;2024-01-15T02:29:02;11.55;;;4.03;;
42832;SDS011;64089;51.478;5.692;2024-01-15T02:31:28;8.07;;;3.35;;
42832;SDS011;64089;51.478;5.692;2024-01-15T02:33:53;15.65;;;3.95;;
42832;SDS011;64089;51.478;5.692;2024-01-15T02:36:19;6.63;;;2.35;;
42832;SDS011;64089;51.478;5.692;2024-01-15T02:38:45;9.95;;;3.83;;
42832;SDS011;64089;51.478;5.692;2024-01-15T02:41:10;7.28;;;3.17;;
42832;SDS011;64089;51.478;5.692;2024-01-15T02:43:39;9.10;;;2.97;;
42832;SDS011;64089;51.478;5.692;2024-01-15T02:46:05;6.63;;;2.75;;
42832;SDS011;64089;51.478;5.692;2024-01-15T02:48:30;4.97;;;2.70;;
42832;SDS011;64089;51.478;5.692;2024-01-15T02:50:56;4.90;;;2.55;;
42832;SDS011;64089;51.478;5.692;2024-01-15T02:53:21;6.05;;;3.40;;
42832;SDS011;64089;51.478;5.692;2024-01-15T02:55:47;6.82;;;3.33;;
42832;SDS011;64089;51.478;5.692;2024-01-15T02:58:14;13.50;;;3.75;;
42832;SDS011;64089;51.478;5.692;2024-01-15T03:00:39;7.05;;;3.00;;
42832;SDS011;64089;51.478;5.692;2024-01-15T03:03:05;8.80;;;2.83;;
42832;SDS011;64089;51.478;5.692;2024-01-15T03:05:31;15.60;;;3.33;;
42832;SDS011;64089;51.478;5.692;2024-01-15T03:07:56;9.88;;;2.95;;
42832;SDS011;64089;51.478;5.692;2024-01-15T03:10:22;13.18;;;4.70;;
42832;SDS011;64089;51.478;5.692;2024-01-15T03:12:47;7.97;;;3.53;;
42832;SDS011;64089;51.478;5.692;2024-01-15T03:15:13;7.38;;;3.13;;
42832;SDS011;64089;51.478;5.692;2024-01-15T03:17:39;15.20;;;3.40;;
42832;SDS011;64089;51.478;5.692;2024-01-15T03:20:06;5.55;;;2.10;;
42832;SDS011;64089;51.478;5.692;2024-01-15T03:22:32;8.27;;;2.90;;
42832;SDS011;64089;51.478;5.692;2024-01-15T03:24:58;5.15;;;2.50;;
42832;SDS011;64089;51.478;5.692;2024-01-15T03:27:23;8.35;;;1.90;;
42832;SDS011;64089;51.478;5.692;2024-01-15T03:29:49;10.25;;;2.20;;
42832;SDS011;64089;51.478;5.692;2024-01-15T03:32:14;5.47;;;1.80;;
42832;SDS011;64089;51.478;5.692;2024-01-15T03:34:41;2.45;;;1.80;;
42832;SDS011;64089;51.478;5.692;2024-01-15T03:37:06;8.55;;;2.60;;
42832;SDS011;64089;51.478;5.692;2024-01-15T03:39:32;6.90;;;2.33;;
42832;SDS011;64089;51.478;5.692;2024-01-15T03:41:58;6.70;;;1.95;;
42832;SDS011;64089;51.478;5.692;2024-01-15T03:44:23;3.50;;;1.95;;
42832;SDS011;64089;51.478;5.692;2024-01-15T03:46:49;6.75;;;2.30;;
42832;SDS011;64089;51.478;5.692;2024-01-15T03:49:15;10.00;;;2.22;;
42832;SDS011;64089;51.478;5.692;2024-01-15T03:51:40;9.95;;;2.78;;
42832;SDS011;64089;51.478;5.692;2024-01-15T03:54:06;7.78;;;1.90;;
42832;SDS011;64089;51.478;5.692;2024-01-15T03:56:31;5.47;;;2.20;;
42832;SDS011;64089;51.478;5.692;2024-01-15T03:58:57;8.38;;;2.25;;
42832;SDS011;64089;51.478;5.692;2024-01-15T04:01:23;4.57;;;2.50;;
42832;SDS011;64089;51.478;5.692;2024-01-15T04:03:48;6.32;;;2.33;;
42832;SDS011;64089;51.478;5.692;2024-01-15T04:06:14;5.20;;;2.33;;
42832;SDS011;64089;51.478;5.692;2024-01-15T04:08:39;7.35;;;2.40;;
42832;SDS011;64089;51.478;5.692;2024-01-15T04:11:05;9.48;;;3.17;;
42832;SDS011;64089;51.478;5.692;2024-01-15T04:13:34;5.75;;;3.08;;
42832;SDS011;64089;51.478;5.692;2024-01-15T04:16:00;7.97;;;3.13;;
42832;SDS011;64089;51.478;5.692;2024-01-15T04:18:25;8.35;;;2.55;;
42832;SDS011;64089;51.478;5.692;2024-01-15T04:20:51;5.32;;;2.38;;
42832;SDS011;64089;51.478;5.692;2024-01-15T04:23:17;5.20;;;2.92;;
42832;SDS011;64089;51.478;5.692;2024-01-15T04:25:42;9.50;;;2.63;;
42832;SDS011;64089;51.478;5.692;2024-01-15T04:28:11;7.88;;;1.83;;
42832;SDS011;64089;51.478;5.692;2024-01-15T04:30:37;10.35;;;2.17;;
42832;SDS011;64089;51.478;5.692;2024-01-15T04:33:02;10.52;;;1.92;;
42832;SDS011;64089;51.478;5.692;2024-01-15T04:35:28;11.80;;;2.35;;
42832;SDS011;64089;51.478;5.692;2024-01-15T04:37:55;4.35;;;1.75;;
42832;SDS011;64089;51.478;5.692;2024-01-15T04:40:20;5.97;;;1.92;;
42832;SDS011;64089;51.478;5.692;2024-01-15T04:42:46;4.88;;;1.33;;
42832;SDS011;64089;51.478;5.692;2024-01-15T04:45:11;2.80;;;1.77;;
42832;SDS011;64089;51.478;5.692;2024-01-15T04:47:37;11.02;;;2.30;;
42832;SDS011;64089;51.478;5.692;2024-01-15T04:50:03;5.38;;;1.23;;
42832;SDS011;64089;51.478;5.692;2024-01-15T04:52:29;2.22;;;0.85;;
42832;SDS011;64089;51.478;5.692;2024-01-15T04:54:55;4.78;;;1.05;;
42832;SDS011;64089;51.478;5.692;2024-01-15T04:57:20;6.70;;;1.42;;
42832;SDS011;64089;51.478;5.692;2024-01-15T04:59:46;3.05;;;1.27;;
42832;SDS011;64089;51.478;5.692;2024-01-15T05:02:12;4.55;;;0.65;;
42832;SDS011;64089;51.478;5.692;2024-01-15T05:04:37;15.35;;;1.38;;
42832;SDS011;64089;51.478;5.692;2024-01-15T05:07:03;12.00;;;1.55;;
42832;SDS011;64089;51.478;5.692;2024-01-15T05:09:28;9.60;;;1.13;;
42832;SDS011;64089;51.478;5.692;2024-01-15T05:11:54;7.55;;;1.10;;
42832;SDS011;64089;51.478;5.692;2024-01-15T05:14:19;0.60;;;0.52;;
42832;SDS011;64089;51.478;5.692;2024-01-15T05:16:48;6.57;;;1.00;;
42832;SDS011;64089;51.478;5.692;2024-01-15T05:19:14;9.60;;;1.20;;
42832;SDS011;64089;51.478;5.692;2024-01-15T05:21:40;0.85;;;0.65;;
42832;SDS011;64089;51.478;5.692;2024-01-15T05:24:07;1.73;;;0.88;;
42832;SDS011;64089;51.478;5.692;2024-01-15T05:26:33;4.50;;;1.15;;
42832;SDS011;64089;51.478;5.692;2024-01-15T05:28:59;2.40;;;1.00;;
42832;SDS011;64089;51.478;5.692;2024-01-15T05:31:24;2.25;;;0.70;;
42832;SDS011;64089;51.478;5.692;2024-01-15T05:33:50;4.70;;;0.80;;
42832;SDS011;64089;51.478;5.692;2024-01-15T05:36:16;1.13;;;0.60;;
42832;SDS011;64089;51.478;5.692;2024-01-15T05:38:41;4.25;;;0.60;;
42832;SDS011;64089;51.478;5.692;2024-01-15T05:41:07;6.38;;;0.80;;
42832;SDS011;64089;51.478;5.692;2024-01-15T05:43:32;5.20;;;0.90;;
42832;SDS011;64089;51.478;5.692;2024-01-15T05:45:58;3.15;;;0.90;;
42832;SDS011;64089;51.478;5.692;2024-01-15T05:48:23;5.28;;;0.50;;
42832;SDS011;64089;51.478;5.692;2024-01-15T05:50:49;2.53;;;0.73;;
42832;SDS011;64089;51.478;5.692;2024-01-15T05:53:14;5.78;;;0.85;;
42832;SDS011;64089;51.478;5.692;2024-01-15T05:55:40;3.45;;;1.35;;
42832;SDS011;64089;51.478;5.692;2024-01-15T05:58:06;1.00;;;0.90;;
42832;SDS011;64089;51.478;5.692;2024-01-15T06:00:32;2.13;;;0.98;;
42832;SDS011;64089;51.478;5.692;2024-01-15T06:03:00;2.80;;;1.00;;
42832;SDS011;64089;51.478;5.692;2024-01-15T06:05:26;6.57;;;1.08;;
42832;SDS011;64089;51.478;5.692;2024-01-15T06:07:52;5.18;;;1.00;;
42832;SDS011;64089;51.478;5.692;2024-01-15T06:10:17;5.43;;;1.40;;
42832;SDS011;64089;51.478;5.692;2024-01-15T06:12:43;3.80;;;1.20;;
42832;SDS011;64089;51.478;5.692;2024-01-15T06:15:09;2.00;;;1.30;;
42832;SDS011;64089;51.478;5.692;2024-01-15T06:17:35;2.83;;;1.02;;
42832;SDS011;64089;51.478;5.692;2024-01-15T06:20:00;6.10;;;1.20;;
42832;SDS011;64089;51.478;5.692;2024-01-15T06:22:26;2.47;;;1.38;;
42832;SDS011;64089;51.478;5.692;2024-01-15T06:24:52;6.45;;;1.60;;
42832;SDS011;64089;51.478;5.692;2024-01-15T06:27:17;2.65;;;1.65;;
42832;SDS011;64089;51.478;5.692;2024-01-15T06:29:44;8.52;;;4.53;;
42832;SDS011;64089;51.478;5.692;2024-01-15T06:32:12;12.57;;;6.80;;
42832;SDS011;64089;51.478;5.692;2024-01-15T06:34:37;4.72;;;2.17;;
42832;SDS011;64089;51.478;5.692;2024-01-15T06:37:03;7.47;;;3.05;;
42832;SDS011;64089;51.478;5.692;2024-01-15T06:39:29;9.68;;;3.58;;
42832;SDS011;64089;51.478;5.692;2024-01-15T06:41:54;7.97;;;3.70;;
42832;SDS011;64089;51.478;5.692;2024-01-15T06:44:20;5.57;;;3.38;;
42832;SDS011;64089;51.478;5.692;2024-01-15T06:46:46;8.10;;;3.05;;
42832;SDS011;64089;51.478;5.692;2024-01-15T06:49:12;7.43;;;3.17;;
42832;SDS011;64089;51.478;5.692;2024-01-15T06:51:38;5.22;;;2.40;;
42832;SDS011;64089;51.478;5.692;2024-01-15T06:54:03;13.68;;;2.92;;
42832;SDS011;64089;51.478;5.692;2024-01-15T06:56:29;6.65;;;2.30;;
42832;SDS011;64089;51.478;5.692;2024-01-15T06:58:55;4.18;;;2.65;;
42832;SDS011;64089;51.478;5.692;2024-01-15T07:01:21;6.95;;;2.10;;
42832;SDS011;64089;51.478;5.692;2024-01-15T07:03:47;4.30;;;1.73;;
42832;SDS011;64089;51.478;5.692;2024-01-15T07:06:12;5.03;;;1.48;;
42832;SDS011;64089;51.478;5.692;2024-01-15T07:08:39;4.03;;;1.92;;
42832;SDS011;64089;51.478;5.692;2024-01-15T07:11:05;2.35;;;1.52;;
42832;SDS011;64089;51.478;5.692;2024-01-15T07:13:32;9.88;;;2.65;;
42832;SDS011;64089;51.478;5.692;2024-01-15T07:15:57;6.63;;;2.83;;
42832;SDS011;64089;51.478;5.692;2024-01-15T07:18:23;6.82;;;2.78;;
42832;SDS011;64089;51.478;5.692;2024-01-15T07:20:49;7.57;;;2.45;;
42832;SDS011;64089;51.478;5.692;2024-01-15T07:23:15;4.05;;;2.30;;
42832;SDS011;64089;51.478;5.692;2024-01-15T07:25:41;3.38;;;1.90;;
42832;SDS011;64089;51.478;5.692;2024-01-15T07:28:07;5.18;;;2.28;;
42832;SDS011;64089;51.478;5.692;2024-01-15T07:30:32;8.60;;;2.60;;
42832;SDS011;64089;51.478;5.692;2024-01-15T07:32:58;4.78;;;2.42;;
42832;SDS011;64089;51.478;5.692;2024-01-15T07:35:24;3.10;;;1.92;;
42832;SDS011;64089;51.478;5.692;2024-01-15T07:37:49;6.05;;;2.90;;
42832;SDS011;64089;51.478;5.692;2024-01-15T07:40:15;8.93;;;2.50;;
42832;SDS011;64089;51.478;5.692;2024-01-15T07:42:41;3.70;;;2.20;;
42832;SDS011;64089;51.478;5.692;2024-01-15T07:45:07;3.65;;;2.03;;
42832;SDS011;64089;51.478;5.692;2024-01-15T07:47:34;5.13;;;2.40;;
42832;SDS011;64089;51.478;5.692;2024-01-15T07:50:00;6.60;;;3.00;;
42832;SDS011;64089;51.478;5.692;2024-01-15T07:52:25;8.48;;;4.88;;
42832;SDS011;64089;51.478;5.692;2024-01-15T07:54:51;4.22;;;2.90;;
42832;SDS011;64089;51.478;5.692;2024-01-15T07:57:16;3.85;;;2.65;;
42832;SDS011;64089;51.478;5.692;2024-01-15T07:59:42;6.80;;;2.55;;
42832;SDS011;64089;51.478;5.692;2024-01-15T08:02:07;3.05;;;2.08;;
42832;SDS011;64089;51.478;5.692;2024-01-15T08:04:33;5.22;;;2.40;;
42832;SDS011;64089;51.478;5.692;2024-01-15T08:06:59;6.88;;;2.58;;
42832;SDS011;64089;51.478;5.692;2024-01-15T08:09:24;6.03;;;3.05;;
42832;SDS011;64089;51.478;5.692;2024-01-15T08:11:50;4.65;;;2.90;;
42832;SDS011;64089;51.478;5.692;2024-01-15T08:14:16;8.23;;;3.88;;
42832;SDS011;64089;51.478;5.692;2024-01-15T08:16:41;9.45;;;4.55;;
42832;SDS011;64089;51.478;5.692;2024-01-15T08:19:08;8.63;;;4.55;;
42832;SDS011;64089;51.478;5.692;2024-01-15T08:21:34;8.55;;;4.60;;
42832;SDS011;64089;51.478;5.692;2024-01-15T08:24:00;9.80;;;5.15;;
42832;SDS011;64089;51.478;5.692;2024-01-15T08:26:27;7.70;;;4.78;;
42832;SDS011;64089;51.478;5.692;2024-01-15T08:28:53;8.20;;;4.57;;
42832;SDS011;64089;51.478;5.692;2024-01-15T08:31:18;12.35;;;4.50;;
42832;SDS011;64089;51.478;5.692;2024-01-15T08:33:44;8.68;;;4.60;;
42832;SDS011;64089;51.478;5.692;2024-01-15T08:36:10;10.00;;;4.50;;
42832;SDS011;64089;51.478;5.692;2024-01-15T08:38:35;8.55;;;4.47;;
42832;SDS011;64089;51.478;5.692;2024-01-15T08:41:01;9.63;;;4.65;;
42832;SDS011;64089;51.478;5.692;2024-01-15T08:43:27;9.23;;;4.65;;
42832;SDS011;64089;51.478;5.692;2024-01-15T08:45:53;9.15;;;4.53;;
42832;SDS011;64089;51.478;5.692;2024-01-15T08:48:18;9.95;;;4.95;;
42832;SDS011;64089;51.478;5.692;2024-01-15T08:50:44;8.10;;;4.50;;
42832;SDS011;64089;51.478;5.692;2024-01-15T08:53:12;13.02;;;5.05;;
42832;SDS011;64089;51.478;5.692;2024-01-15T08:55:38;8.98;;;5.00;;
42832;SDS011;64089;51.478;5.692;2024-01-15T08:58:04;10.60;;;4.90;;
42832;SDS011;64089;51.478;5.692;2024-01-15T09:00:31;9.30;;;4.45;;
42832;SDS011;64089;51.478;5.692;2024-01-15T09:02:57;10.77;;;4.63;;
42832;SDS011;64089;51.478;5.692;2024-01-15T09:05:22;9.82;;;4.55;;
42832;SDS011;64089;51.478;5.692;2024-01-15T09:07:48;12.20;;;5.43;;
42832;SDS011;64089;51.478;5.692;2024-01-15T09:10:16;9.02;;;4.43;;
42832;SDS011;64089;51.478;5.692;2024-01-15T09:12:41;10.55;;;5.45;;
42832;SDS011;64089;51.478;5.692;2024-01-15T09:15:07;8.43;;;4.45;;
42832;SDS011;64089;51.478;5.692;2024-01-15T09:17:33;13.05;;;4.38;;
42832;SDS011;64089;51.478;5.692;2024-01-15T09:19:59;8.55;;;4.38;;
42832;SDS011;64089;51.478;5.692;2024-01-15T09:22:25;9.98;;;4.38;;
42832;SDS011;64089;51.478;5.692;2024-01-15T09:24:50;8.52;;;4.65;;
42832;SDS011;64089;51.478;5.692;2024-01-15T09:27:16;9.43;;;3.50;;
42832;SDS011;64089;51.478;5.692;2024-01-15T09:29:41;4.28;;;3.13;;
42832;SDS011;64089;51.478;5.692;2024-01-15T09:32:09;5.45;;;3.22;;
42832;SDS011;64089;51.478;5.692;2024-01-15T09:34:34;6.47;;;2.75;;
42832;SDS011;64089;51.478;5.692;2024-01-15T09:37:00;6.25;;;3.15;;
42832;SDS011;64089;51.478;5.692;2024-01-15T09:39:26;5.53;;;2.67;;
42832;SDS011;64089;51.478;5.692;2024-01-15T09:41:53;4.75;;;1.80;;
42832;SDS011;64089;51.478;5.692;2024-01-15T09:44:19;2.60;;;1.90;;
42832;SDS011;64089;51.478;5.692;2024-01-15T09:46:46;6.20;;;1.25;;
42832;SDS011;64089;51.478;5.692;2024-01-15T09:49:16;2.97;;;1.50;;
42832;SDS011;64089;51.478;5.692;2024-01-15T09:51:42;6.88;;;1.67;;
42832;SDS011;64089;51.478;5.692;2024-01-15T09:54:08;1.52;;;0.73;;
42832;SDS011;64089;51.478;5.692;2024-01-15T09:56:35;5.60;;;0.80;;
42832;SDS011;64089;51.478;5.692;2024-01-15T09:59:00;2.58;;;0.90;;
42832;SDS011;64089;51.478;5.692;2024-01-15T10:01:26;4.22;;;1.20;;
42832;SDS011;64089;51.478;5.692;2024-01-15T10:03:54;3.60;;;0.80;;
42832;SDS011;64089;51.478;5.692;2024-01-15T10:06:21;5.97;;;1.00;;
42832;SDS011;64089;51.478;5.692;2024-01-15T10:08:47;4.75;;;1.35;;
42832;SDS011;64089;51.478;5.692;2024-01-15T10:11:16;2.50;;;1.20;;
42832;SDS011;64089;51.478;5.692;2024-01-15T10:13:45;1.67;;;0.93;;
42832;SDS011;64089;51.478;5.692;2024-01-15T10:16:11;1.33;;;0.82;;
42832;SDS011;64089;51.478;5.692;2024-01-15T10:18:37;1.67;;;0.90;;
42832;SDS011;64089;51.478;5.692;2024-01-15T10:21:05;3.90;;;1.17;;
42832;SDS011;64089;51.478;5.692;2024-01-15T10:23:32;3.35;;;1.08;;
42832;SDS011;64089;51.478;5.692;2024-01-15T10:25:58;4.28;;;1.30;;
42832;SDS011;64089;51.478;5.692;2024-01-15T10:28:25;7.65;;;1.73;;
42832;SDS011;64089;51.478;5.692;2024-01-15T10:30:55;2.83;;;1.70;;
42832;SDS011;64089;51.478;5.692;2024-01-15T10:33:22;3.70;;;0.82;;
42832;SDS011;64089;51.478;5.692;2024-01-15T10:35:50;9.48;;;1.25;;
42832;SDS011;64089;51.478;5.692;2024-01-15T10:38:20;1.08;;;0.88;;
42832;SDS011;64089;51.478;5.692;2024-01-15T10:40:47;2.38;;;1.20;;
42832;SDS011;64089;51.478;5.692;2024-01-15T10:43:16;3.25;;;1.10;;
42832;SDS011;64089;51.478;5.692;2024-01-15T10:45:43;1.52;;;1.05;;
42832;SDS011;64089;51.478;5.692;2024-01-15T10:48:12;5.15;;;1.58;;
42832;SDS011;64089;51.478;5.692;2024-01-15T10:50:39;6.53;;;2.17;;
42832;SDS011;64089;51.478;5.692;2024-01-15T10:53:05;1.60;;;1.27;;
42832;SDS011;64089;51.478;5.692;2024-01-15T10:55:31;5.07;;;1.30;;
42832;SDS011;64089;51.478;5.692;2024-01-15T10:57:58;5.38;;;1.98;;
42832;SDS011;64089;51.478;5.692;2024-01-15T11:00:24;8.10;;;2.40;;
42832;SDS011;64089;51.478;5.692;2024-01-15T11:02:51;4.35;;;2.00;;
42832;SDS011;64089;51.478;5.692;2024-01-15T11:05:20;8.15;;;1.92;;
42832;SDS011;64089;51.478;5.692;2024-01-15T11:07:47;2.65;;;1.73;;
42832;SDS011;64089;51.478;5.692;2024-01-15T11:15:58;7.57;;;2.28;;
42832;SDS011;64089;51.478;5.692;2024-01-15T11:18:29;3.10;;;1.60;;
42832;SDS011;64089;51.478;5.692;2024-01-15T11:23:55;3.50;;;1.90;;
42832;SDS011;64089;51.478;5.692;2024-01-15T11:27:04;5.88;;;2.20;;
42832;SDS011;64089;51.478;5.692;2024-01-15T11:34:49;2.65;;;1.70;;
42832;SDS011;64089;51.478;5.692;2024-01-15T11:37:15;8.95;;;2.42;;
42832;SDS011;64089;51.478;5.692;2024-01-15T11:39:43;3.25;;;2.00;;
42832;SDS011;64089;51.478;5.692;2024-01-15T11:42:10;6.05;;;1.95;;
42832;SDS011;64089;51.478;5.692;2024-01-15T11:44:37;1.88;;;1.48;;
42832;SDS011;64089;51.478;5.692;2024-01-15T11:47:07;3.50;;;1.45;;
42832;SDS011;64089;51.478;5.692;2024-01-15T11:52:34;2.60;;;1.40;;
42832;SDS011;64089;51.478;5.692;2024-01-15T11:55:11;1.35;;;1.17;;
42832;SDS011;64089;51.478;5.692;2024-01-15T11:57:55;1.67;;;1.38;;
42832;SDS011;64089;51.478;5.692;2024-01-15T12:00:25;8.38;;;1.45;;
42832;SDS011;64089;51.478;5.692;2024-01-15T12:02:51;2.85;;;1.33;;
42832;SDS011;64089;51.478;5.692;2024-01-15T12:05:17;1.65;;;1.23;;
42832;SDS011;64089;51.478;5.692;2024-01-15T12:07:44;4.05;;;1.20;;
42832;SDS011;64089;51.478;5.692;2024-01-15T12:10:14;2.75;;;1.40;;
42832;SDS011;64089;51.478;5.692;2024-01-15T12:15:20;3.67;;;1.38;;
42832;SDS011;64089;51.478;5.692;2024-01-15T12:17:46;2.72;;;1.42;;
42832;SDS011;64089;51.478;5.692;2024-01-15T12:20:14;3.10;;;1.63;;
42832;SDS011;64089;51.478;5.692;2024-01-15T12:22:41;1.40;;;1.20;;
42832;SDS011;64089;51.478;5.692;2024-01-15T12:25:06;5.00;;;2.20;;
42832;SDS011;64089;51.478;5.692;2024-01-15T12:27:32;1.48;;;1.02;;
42832;SDS011;64089;51.478;5.692;2024-01-15T12:29:58;3.05;;;1.00;;
42832;SDS011;64089;51.478;5.692;2024-01-15T12:32:24;2.75;;;1.00;;
42832;SDS011;64089;51.478;5.692;2024-01-15T12:34:50;3.33;;;1.08;;
42832;SDS011;64089;51.478;5.692;2024-01-15T12:37:19;1.02;;;0.93;;
42832;SDS011;64089;51.478;5.692;2024-01-15T12:39:44;1.95;;;1.30;;
42832;SDS011;64089;51.478;5.692;2024-01-15T12:42:10;2.10;;;1.10;;
42832;SDS011;64089;51.478;5.692;2024-01-15T12:44:36;3.03;;;1.70;;
42832;SDS011;64089;51.478;5.692;2024-01-15T12:47:06;3.53;;;1.63;;
42832;SDS011;64089;51.478;5.692;2024-01-15T12:49:31;1.60;;;1.38;;
42832;SDS011;64089;51.478;5.692;2024-01-15T12:51:57;2.15;;;1.75;;
42832;SDS011;64089;51.478;5.692;2024-01-15T12:54:24;3.65;;;1.60;;
42832;SDS011;64089;51.478;5.692;2024-01-15T12:56:50;5.70;;;2.00;;
42832;SDS011;64089;51.478;5.692;2024-01-15T12:59:16;2.50;;;1.77;;
42832;SDS011;64089;51.478;5.692;2024-01-15T13:01:42;2.03;;;1.52;;
42832;SDS011;64089;51.478;5.692;2024-01-15T13:04:08;6.40;;;2.38;;
42832;SDS011;64089;51.478;5.692;2024-01-15T13:06:34;2.67;;;2.00;;
42832;SDS011;64089;51.478;5.692;2024-01-15T13:09:00;2.88;;;1.98;;
42832;SDS011;64089;51.478;5.692;2024-01-15T13:11:26;3.80;;;2.50;;
42832;SDS011;64089;51.478;5.692;2024-01-15T13:13:52;6.20;;;2.60;;
42832;SDS011;64089;51.478;5.692;2024-01-15T13:16:18;2.97;;;2.20;;
42832;SDS011;64089;51.478;5.692;2024-01-15T13:18:45;4.30;;;2.03;;
42832;SDS011;64089;51.478;5.692;2024-01-15T13:21:11;3.42;;;2.40;;
42832;SDS011;64089;51.478;5.692;2024-01-15T13:23:37;3.85;;;2.20;;
42832;SDS011;64089;51.478;5.692;2024-01-15T13:26:04;4.25;;;2.33;;
42832;SDS011;64089;51.478;5.692;2024-01-15T13:28:30;2.10;;;1.80;;
42832;SDS011;64089;51.478;5.692;2024-01-15T13:30:55;5.18;;;2.47;;
42832;SDS011;64089;51.478;5.692;2024-01-15T13:33:21;4.13;;;2.45;;
42832;SDS011;64089;51.478;5.692;2024-01-15T13:35:47;8.73;;;3.15;;
42832;SDS011;64089;51.478;5.692;2024-01-15T13:38:15;3.40;;;2.60;;
42832;SDS011;64089;51.478;5.692;2024-01-15T13:40:41;5.07;;;2.35;;
42832;SDS011;64089;51.478;5.692;2024-01-15T13:43:06;3.03;;;2.58;;
42832;SDS011;64089;51.478;5.692;2024-01-15T13:45:33;3.17;;;2.20;;
42832;SDS011;64089;51.478;5.692;2024-01-15T13:48:00;6.97;;;2.97;;
42832;SDS011;64089;51.478;5.692;2024-01-15T13:50:26;4.80;;;2.92;;
42832;SDS011;64089;51.478;5.692;2024-01-15T13:52:52;3.35;;;2.60;;
42832;SDS011;64089;51.478;5.692;2024-01-15T13:55:18;3.60;;;2.30;;
42832;SDS011;64089;51.478;5.692;2024-01-15T13:57:43;3.75;;;2.42;;
42832;SDS011;64089;51.478;5.692;2024-01-15T14:00:09;3.67;;;2.28;;
42832;SDS011;64089;51.478;5.692;2024-01-15T14:02:37;2.75;;;2.15;;
42832;SDS011;64089;51.478;5.692;2024-01-15T14:05:02;3.78;;;2.40;;
42832;SDS011;64089;51.478;5.692;2024-01-15T14:07:28;2.30;;;1.98;;
42832;SDS011;64089;51.478;5.692;2024-01-15T14:09:54;4.43;;;2.42;;
42832;SDS011;64089;51.478;5.692;2024-01-15T14:12:19;3.22;;;2.15;;
42832;SDS011;64089;51.478;5.692;2024-01-15T14:14:45;1.85;;;1.42;;
42832;SDS011;64089;51.478;5.692;2024-01-15T14:17:10;2.22;;;1.83;;
42832;SDS011;64089;51.478;5.692;2024-01-15T14:19:36;2.67;;;2.22;;
42832;SDS011;64089;51.478;5.692;2024-01-15T14:22:02;2.70;;;2.20;;
42832;SDS011;64089;51.478;5.692;2024-01-15T14:24:28;4.25;;;2.50;;
42832;SDS011;64089;51.478;5.692;2024-01-15T14:26:53;6.90;;;3.83;;
42832;SDS011;64089;51.478;5.692;2024-01-15T14:29:19;6.28;;;2.97;;
42832;SDS011;64089;51.478;5.692;2024-01-15T14:31:47;5.68;;;3.28;;
42832;SDS011;64089;51.478;5.692;2024-01-15T14:34:13;6.18;;;3.38;;
42832;SDS011;64089;51.478;5.692;2024-01-15T14:36:38;5.10;;;3.10;;
42832;SDS011;64089;51.478;5.692;2024-01-15T14:39:04;6.75;;;3.03;;
42832;SDS011;64089;51.478;5.692;2024-01-15T14:41:29;4.07;;;2.70;;
42832;SDS011;64089;51.478;5.692;2024-01-15T14:43:55;4.28;;;2.45;;
42832;SDS011;64089;51.478;5.692;2024-01-15T14:46:22;3.92;;;2.75;;
42832;SDS011;64089;51.478;5.692;2024-01-15T14:48:47;6.57;;;2.45;;
42832;SDS011;64089;51.478;5.692;2024-01-15T14:51:13;2.78;;;2.30;;
42832;SDS011;64089;51.478;5.692;2024-01-15T14:53:39;3.95;;;2.42;;
42832;SDS011;64089;51.478;5.692;2024-01-15T14:56:05;8.68;;;3.10;;